sensor_id;sensor_type;location;lat;lon;timestamp;P1;durP1;ratioP1;P2;durP2;ratioP2
66129;SDS011;52930;51.464;11.764;2022-10-31T00:02:18;30.40;;;15.70;;
66129;SDS011;52930;51.464;11.764;2022-10-31T00:04:44;31.93;;;15.63;;
66129;SDS011;52930;51.464;11.764;2022-10-31T00:07:09;38.97;;;15.67;;
66129;SDS011;52930;51.464;11.764;2022-10-31T00:09:34;31.30;;;15.60;;
66129;SDS011;52930;51.464;11.764;2022-10-31T00:12:00;30.50;;;15.03;;
66129;SDS011;52930;51.464;11.764;2022-10-31T00:14:25;28.42;;;13.68;;
66129;SDS011;52930;51.464;11.764;2022-10-31T00:16:50;31.02;;;15.50;;
66129;SDS011;52930;51.464;11.764;2022-10-31T00:19:16;33.43;;;15.60;;
66129;SDS011;52930;51.464;11.764;2022-10-31T00:21:41;33.97;;;14.13;;
66129;SDS011;52930;51.464;11.764;2022-10-31T00:24:07;26.53;;;13.93;;
66129;SDS011;52930;51.464;11.764;2022-10-31T00:26:32;25.80;;;11.33;;
66129;SDS011;52930;51.464;11.764;2022-10-31T00:28:58;27.93;;;12.77;;
66129;SDS011;52930;51.464;11.764;2022-10-31T00:31:24;30.98;;;14.73;;
66129;SDS011;52930;51.464;11.764;2022-10-31T00:33:49;29.37;;;15.03;;
66129;SDS011;52930;51.464;11.764;2022-10-31T00:36:15;32.92;;;14.55;;
66129;SDS011;52930;51.464;11.764;2022-10-31T00:38:42;26.23;;;14.52;;
66129;SDS011;52930;51.464;11.764;2022-10-31T00:41:09;25.20;;;12.65;;
66129;SDS011;52930;51.464;11.764;2022-10-31T00:43:35;26.30;;;12.90;;
66129;SDS011;52930;51.464;11.764;2022-10-31T00:46:00;24.23;;;12.87;;
66129;SDS011;52930;51.464;11.764;2022-10-31T00:48:25;25.27;;;12.33;;
66129;SDS011;52930;51.464;11.764;2022-10-31T00:50:51;25.83;;;12.82;;
66129;SDS011;52930;51.464;11.764;2022-10-31T00:53:16;21.93;;;12.47;;
66129;SDS011;52930;51.464;11.764;2022-10-31T00:55:42;22.67;;;12.23;;
66129;SDS011;52930;51.464;11.764;2022-10-31T00:58:07;23.53;;;12.60;;
66129;SDS011;52930;51.464;11.764;2022-10-31T01:00:32;24.00;;;13.23;;
66129;SDS011;52930;51.464;11.764;2022-10-31T01:02:58;23.23;;;12.23;;
66129;SDS011;52930;51.464;11.764;2022-10-31T01:05:23;24.30;;;13.30;;
66129;SDS011;52930;51.464;11.764;2022-10-31T01:07:49;27.38;;;12.98;;
66129;SDS011;52930;51.464;11.764;2022-10-31T01:10:14;29.37;;;13.83;;
66129;SDS011;52930;51.464;11.764;2022-10-31T01:12:40;27.83;;;13.40;;
66129;SDS011;52930;51.464;11.764;2022-10-31T01:15:07;28.00;;;13.45;;
66129;SDS011;52930;51.464;11.764;2022-10-31T01:17:34;26.70;;;12.23;;
66129;SDS011;52930;51.464;11.764;2022-10-31T01:20:00;29.83;;;13.18;;
66129;SDS011;52930;51.464;11.764;2022-10-31T01:22:25;26.30;;;12.47;;
66129;SDS011;52930;51.464;11.764;2022-10-31T01:24:51;24.30;;;12.27;;
66129;SDS011;52930;51.464;11.764;2022-10-31T01:27:16;26.80;;;11.77;;
66129;SDS011;52930;51.464;11.764;2022-10-31T01:29:41;24.20;;;10.77;;
66129;SDS011;52930;51.464;11.764;2022-10-31T01:32:07;19.00;;;11.30;;
66129;SDS011;52930;51.464;11.764;2022-10-31T01:34:32;21.13;;;11.30;;
66129;SDS011;52930;51.464;11.764;2022-10-31T01:36:57;21.63;;;11.57;;
66129;SDS011;52930;51.464;11.764;2022-10-31T01:39:23;22.17;;;11.57;;
66129;SDS011;52930;51.464;11.764;2022-10-31T01:41:49;25.07;;;11.37;;
66129;SDS011;52930;51.464;11.764;2022-10-31T01:46:45;27.07;;;11.07;;
66129;SDS011;52930;51.464;11.764;2022-10-31T01:49:12;29.25;;;13.15;;
66129;SDS011;52930;51.464;11.764;2022-10-31T01:51:46;25.63;;;11.88;;
66129;SDS011;52930;51.464;11.764;2022-10-31T01:54:15;25.02;;;11.52;;
66129;SDS011;52930;51.464;11.764;2022-10-31T01:56:44;25.52;;;11.60;;
66129;SDS011;52930;51.464;11.764;2022-10-31T01:59:13;25.25;;;11.93;;
66129;SDS011;52930;51.464;11.764;2022-10-31T02:01:41;23.35;;;12.10;;
66129;SDS011;52930;51.464;11.764;2022-10-31T02:04:07;24.42;;;11.63;;
66129;SDS011;52930;51.464;11.764;2022-10-31T02:06:35;23.23;;;11.40;;
66129;SDS011;52930;51.464;11.764;2022-10-31T02:09:06;28.00;;;11.75;;
66129;SDS011;52930;51.464;11.764;2022-10-31T02:11:32;22.17;;;11.70;;
66129;SDS011;52930;51.464;11.764;2022-10-31T02:13:58;25.17;;;11.57;;
66129;SDS011;52930;51.464;11.764;2022-10-31T02:16:25;29.40;;;11.00;;
66129;SDS011;52930;51.464;11.764;2022-10-31T02:18:50;24.57;;;11.70;;
66129;SDS011;52930;51.464;11.764;2022-10-31T02:21:22;27.83;;;11.87;;
66129;SDS011;52930;51.464;11.764;2022-10-31T02:35:03;24.30;;;11.05;;
66129;SDS011;52930;51.464;11.764;2022-10-31T02:37:50;27.42;;;10.88;;
66129;SDS011;52930;51.464;11.764;2022-10-31T02:40:27;22.67;;;10.88;;
66129;SDS011;52930;51.464;11.764;2022-10-31T02:47:53;21.33;;;9.65;;
66129;SDS011;52930;51.464;11.764;2022-10-31T02:50:21;22.02;;;9.55;;
66129;SDS011;52930;51.464;11.764;2022-10-31T02:52:51;19.73;;;9.32;;
66129;SDS011;52930;51.464;11.764;2022-10-31T02:57:52;19.38;;;9.05;;
66129;SDS011;52930;51.464;11.764;2022-10-31T03:00:20;20.25;;;9.23;;
66129;SDS011;52930;51.464;11.764;2022-10-31T03:03:10;17.37;;;8.70;;
66129;SDS011;52930;51.464;11.764;2022-10-31T03:11:03;18.95;;;8.05;;
66129;SDS011;52930;51.464;11.764;2022-10-31T03:13:47;15.77;;;7.00;;
66129;SDS011;52930;51.464;11.764;2022-10-31T03:18:54;17.85;;;8.40;;
66129;SDS011;52930;51.464;11.764;2022-10-31T03:21:26;19.15;;;8.70;;
66129;SDS011;52930;51.464;11.764;2022-10-31T03:23:54;17.92;;;8.80;;
66129;SDS011;52930;51.464;11.764;2022-10-31T03:26:21;19.63;;;7.65;;
66129;SDS011;52930;51.464;11.764;2022-10-31T03:28:49;15.70;;;8.05;;
66129;SDS011;52930;51.464;11.764;2022-10-31T03:31:19;20.08;;;8.45;;
66129;SDS011;52930;51.464;11.764;2022-10-31T03:33:49;17.58;;;8.38;;
66129;SDS011;52930;51.464;11.764;2022-10-31T03:36:15;15.35;;;7.35;;
66129;SDS011;52930;51.464;11.764;2022-10-31T03:38:42;16.48;;;8.05;;
66129;SDS011;52930;51.464;11.764;2022-10-31T03:41:10;20.15;;;8.80;;
66129;SDS011;52930;51.464;11.764;2022-10-31T03:43:41;18.58;;;8.27;;
66129;SDS011;52930;51.464;11.764;2022-10-31T03:46:07;16.27;;;8.02;;
66129;SDS011;52930;51.464;11.764;2022-10-31T03:48:33;19.87;;;8.67;;
66129;SDS011;52930;51.464;11.764;2022-10-31T03:53:40;16.15;;;7.88;;
66129;SDS011;52930;51.464;11.764;2022-10-31T03:56:53;15.82;;;7.72;;
66129;SDS011;52930;51.464;11.764;2022-10-31T04:01:52;15.55;;;7.70;;
66129;SDS011;52930;51.464;11.764;2022-10-31T04:04:20;17.58;;;7.45;;
66129;SDS011;52930;51.464;11.764;2022-10-31T04:06:46;15.70;;;7.05;;
66129;SDS011;52930;51.464;11.764;2022-10-31T04:09:12;17.65;;;7.50;;
66129;SDS011;52930;51.464;11.764;2022-10-31T04:11:43;18.07;;;7.97;;
66129;SDS011;52930;51.464;11.764;2022-10-31T04:14:13;16.45;;;7.30;;
66129;SDS011;52930;51.464;11.764;2022-10-31T04:16:42;16.40;;;7.77;;
66129;SDS011;52930;51.464;11.764;2022-10-31T04:19:08;18.08;;;7.97;;
66129;SDS011;52930;51.464;11.764;2022-10-31T04:21:34;19.27;;;8.43;;
66129;SDS011;52930;51.464;11.764;2022-10-31T04:23:59;17.53;;;8.07;;
66129;SDS011;52930;51.464;11.764;2022-10-31T04:26:24;20.47;;;8.43;;
66129;SDS011;52930;51.464;11.764;2022-10-31T04:28:50;20.07;;;8.93;;
66129;SDS011;52930;51.464;11.764;2022-10-31T04:31:16;19.38;;;9.00;;
66129;SDS011;52930;51.464;11.764;2022-10-31T04:33:41;18.50;;;9.10;;
66129;SDS011;52930;51.464;11.764;2022-10-31T04:36:06;22.57;;;9.83;;
66129;SDS011;52930;51.464;11.764;2022-10-31T04:38:32;20.37;;;8.70;;
66129;SDS011;52930;51.464;11.764;2022-10-31T04:40:58;17.80;;;8.45;;
66129;SDS011;52930;51.464;11.764;2022-10-31T04:43:23;23.38;;;9.02;;
66129;SDS011;52930;51.464;11.764;2022-10-31T04:45:49;19.95;;;9.15;;
66129;SDS011;52930;51.464;11.764;2022-10-31T04:48:14;21.25;;;9.95;;
66129;SDS011;52930;51.464;11.764;2022-10-31T04:50:40;19.83;;;8.90;;
66129;SDS011;52930;51.464;11.764;2022-10-31T04:53:05;20.83;;;9.23;;
66129;SDS011;52930;51.464;11.764;2022-10-31T04:55:31;18.23;;;7.90;;
66129;SDS011;52930;51.464;11.764;2022-10-31T04:57:56;18.98;;;8.27;;
66129;SDS011;52930;51.464;11.764;2022-10-31T05:00:22;19.63;;;8.43;;
66129;SDS011;52930;51.464;11.764;2022-10-31T05:02:49;16.63;;;9.20;;
66129;SDS011;52930;51.464;11.764;2022-10-31T05:05:16;18.30;;;9.30;;
66129;SDS011;52930;51.464;11.764;2022-10-31T05:07:43;21.87;;;10.30;;
66129;SDS011;52930;51.464;11.764;2022-10-31T05:10:10;18.90;;;9.57;;
66129;SDS011;52930;51.464;11.764;2022-10-31T05:12:37;19.55;;;8.98;;
66129;SDS011;52930;51.464;11.764;2022-10-31T05:15:03;21.80;;;10.38;;
66129;SDS011;52930;51.464;11.764;2022-10-31T05:17:30;19.65;;;9.65;;
66129;SDS011;52930;51.464;11.764;2022-10-31T05:19:56;18.63;;;9.35;;
66129;SDS011;52930;51.464;11.764;2022-10-31T05:22:21;17.73;;;8.70;;
66129;SDS011;52930;51.464;11.764;2022-10-31T05:24:47;17.90;;;8.27;;
66129;SDS011;52930;51.464;11.764;2022-10-31T05:27:12;18.13;;;8.70;;
66129;SDS011;52930;51.464;11.764;2022-10-31T05:29:37;17.57;;;7.50;;
66129;SDS011;52930;51.464;11.764;2022-10-31T05:32:03;17.07;;;7.77;;
66129;SDS011;52930;51.464;11.764;2022-10-31T05:34:28;16.63;;;7.97;;
66129;SDS011;52930;51.464;11.764;2022-10-31T05:36:53;14.20;;;7.80;;
66129;SDS011;52930;51.464;11.764;2022-10-31T05:39:19;14.70;;;7.40;;
66129;SDS011;52930;51.464;11.764;2022-10-31T05:41:44;14.25;;;7.10;;
66129;SDS011;52930;51.464;11.764;2022-10-31T05:44:09;14.45;;;7.82;;
66129;SDS011;52930;51.464;11.764;2022-10-31T05:46:35;17.40;;;8.17;;
66129;SDS011;52930;51.464;11.764;2022-10-31T05:49:00;14.23;;;7.67;;
66129;SDS011;52930;51.464;11.764;2022-10-31T05:51:26;18.60;;;10.27;;
66129;SDS011;52930;51.464;11.764;2022-10-31T05:53:51;21.77;;;9.50;;
66129;SDS011;52930;51.464;11.764;2022-10-31T05:56:16;22.33;;;9.93;;
66129;SDS011;52930;51.464;11.764;2022-10-31T05:58:42;20.33;;;9.45;;
66129;SDS011;52930;51.464;11.764;2022-10-31T06:01:07;26.77;;;10.90;;
66129;SDS011;52930;51.464;11.764;2022-10-31T06:03:32;22.63;;;10.10;;
66129;SDS011;52930;51.464;11.764;2022-10-31T06:05:58;31.03;;;11.63;;
66129;SDS011;52930;51.464;11.764;2022-10-31T06:08:23;28.97;;;12.17;;
66129;SDS011;52930;51.464;11.764;2022-10-31T06:10:49;31.60;;;11.63;;
66129;SDS011;52930;51.464;11.764;2022-10-31T06:13:14;22.47;;;11.17;;
66129;SDS011;52930;51.464;11.764;2022-10-31T06:15:41;23.08;;;10.23;;
66129;SDS011;52930;51.464;11.764;2022-10-31T06:18:07;22.65;;;10.35;;
66129;SDS011;52930;51.464;11.764;2022-10-31T06:20:33;24.80;;;10.75;;
66129;SDS011;52930;51.464;11.764;2022-10-31T06:22:59;23.73;;;10.95;;
66129;SDS011;52930;51.464;11.764;2022-10-31T06:25:24;20.40;;;10.50;;
66129;SDS011;52930;51.464;11.764;2022-10-31T06:27:50;22.83;;;10.38;;
66129;SDS011;52930;51.464;11.764;2022-10-31T06:30:15;20.80;;;9.20;;
66129;SDS011;52930;51.464;11.764;2022-10-31T06:32:41;19.60;;;9.30;;
66129;SDS011;52930;51.464;11.764;2022-10-31T06:35:06;19.57;;;9.07;;
66129;SDS011;52930;51.464;11.764;2022-10-31T06:37:31;17.27;;;9.00;;
66129;SDS011;52930;51.464;11.764;2022-10-31T06:39:57;18.83;;;9.00;;
66129;SDS011;52930;51.464;11.764;2022-10-31T06:42:22;18.13;;;9.23;;
66129;SDS011;52930;51.464;11.764;2022-10-31T06:44:48;19.88;;;8.63;;
66129;SDS011;52930;51.464;11.764;2022-10-31T06:47:13;16.17;;;8.10;;
66129;SDS011;52930;51.464;11.764;2022-10-31T06:49:38;16.67;;;8.87;;
66129;SDS011;52930;51.464;11.764;2022-10-31T06:52:04;18.00;;;9.07;;
66129;SDS011;52930;51.464;11.764;2022-10-31T06:54:30;19.73;;;9.25;;
66129;SDS011;52930;51.464;11.764;2022-10-31T06:56:55;18.23;;;9.40;;
66129;SDS011;52930;51.464;11.764;2022-10-31T06:59:21;17.97;;;9.47;;
66129;SDS011;52930;51.464;11.764;2022-10-31T07:01:46;18.70;;;9.05;;
66129;SDS011;52930;51.464;11.764;2022-10-31T07:04:11;20.20;;;8.70;;
66129;SDS011;52930;51.464;11.764;2022-10-31T07:06:37;20.73;;;8.53;;
66129;SDS011;52930;51.464;11.764;2022-10-31T07:09:03;15.65;;;7.63;;
66129;SDS011;52930;51.464;11.764;2022-10-31T07:11:28;17.67;;;8.03;;
66129;SDS011;52930;51.464;11.764;2022-10-31T07:13:54;17.00;;;7.37;;
66129;SDS011;52930;51.464;11.764;2022-10-31T07:16:19;14.33;;;7.23;;
66129;SDS011;52930;51.464;11.764;2022-10-31T07:18:44;16.38;;;6.97;;
66129;SDS011;52930;51.464;11.764;2022-10-31T07:21:10;14.57;;;7.30;;
66129;SDS011;52930;51.464;11.764;2022-10-31T07:23:35;16.50;;;6.70;;
66129;SDS011;52930;51.464;11.764;2022-10-31T07:26:00;17.73;;;6.93;;
66129;SDS011;52930;51.464;11.764;2022-10-31T07:28:26;14.77;;;7.00;;
66129;SDS011;52930;51.464;11.764;2022-10-31T07:30:52;16.30;;;7.03;;
66129;SDS011;52930;51.464;11.764;2022-10-31T07:33:18;14.13;;;6.82;;
66129;SDS011;52930;51.464;11.764;2022-10-31T07:35:44;19.40;;;7.35;;
66129;SDS011;52930;51.464;11.764;2022-10-31T07:38:10;16.37;;;7.13;;
66129;SDS011;52930;51.464;11.764;2022-10-31T07:40:36;14.00;;;6.70;;
66129;SDS011;52930;51.464;11.764;2022-10-31T07:43:02;15.33;;;6.90;;
66129;SDS011;52930;51.464;11.764;2022-10-31T07:45:27;15.73;;;6.83;;
66129;SDS011;52930;51.464;11.764;2022-10-31T07:47:53;16.67;;;6.75;;
66129;SDS011;52930;51.464;11.764;2022-10-31T07:50:19;16.20;;;6.20;;
66129;SDS011;52930;51.464;11.764;2022-10-31T07:52:46;18.95;;;6.80;;
66129;SDS011;52930;51.464;11.764;2022-10-31T07:55:12;13.50;;;6.40;;
66129;SDS011;52930;51.464;11.764;2022-10-31T07:57:37;14.25;;;6.35;;
66129;SDS011;52930;51.464;11.764;2022-10-31T08:00:03;16.23;;;6.70;;
66129;SDS011;52930;51.464;11.764;2022-10-31T08:02:30;18.15;;;7.00;;
66129;SDS011;52930;51.464;11.764;2022-10-31T08:04:55;15.33;;;6.40;;
66129;SDS011;52930;51.464;11.764;2022-10-31T08:07:20;15.73;;;7.43;;
66129;SDS011;52930;51.464;11.764;2022-10-31T08:09:46;14.00;;;6.57;;
66129;SDS011;52930;51.464;11.764;2022-10-31T08:12:12;15.55;;;7.05;;
66129;SDS011;52930;51.464;11.764;2022-10-31T08:14:37;16.40;;;7.50;;
66129;SDS011;52930;51.464;11.764;2022-10-31T08:17:02;17.10;;;6.90;;
66129;SDS011;52930;51.464;11.764;2022-10-31T08:19:28;15.73;;;7.05;;
66129;SDS011;52930;51.464;11.764;2022-10-31T08:21:53;14.87;;;6.57;;
66129;SDS011;52930;51.464;11.764;2022-10-31T08:24:23;17.13;;;7.75;;
66129;SDS011;52930;51.464;11.764;2022-10-31T08:26:48;14.50;;;6.90;;
66129;SDS011;52930;51.464;11.764;2022-10-31T08:29:14;11.57;;;6.63;;
66129;SDS011;52930;51.464;11.764;2022-10-31T08:31:39;18.70;;;7.63;;
66129;SDS011;52930;51.464;11.764;2022-10-31T08:34:05;15.77;;;7.53;;
66129;SDS011;52930;51.464;11.764;2022-10-31T08:36:31;16.17;;;7.53;;
66129;SDS011;52930;51.464;11.764;2022-10-31T08:38:56;19.47;;;8.10;;
66129;SDS011;52930;51.464;11.764;2022-10-31T08:41:21;18.38;;;7.95;;
66129;SDS011;52930;51.464;11.764;2022-10-31T08:43:47;15.07;;;7.88;;
66129;SDS011;52930;51.464;11.764;2022-10-31T08:46:12;25.57;;;8.97;;
66129;SDS011;52930;51.464;11.764;2022-10-31T08:48:38;14.23;;;7.17;;
66129;SDS011;52930;51.464;11.764;2022-10-31T08:51:03;16.35;;;7.53;;
66129;SDS011;52930;51.464;11.764;2022-10-31T08:53:29;18.55;;;7.43;;
66129;SDS011;52930;51.464;11.764;2022-10-31T08:55:55;15.00;;;7.23;;
66129;SDS011;52930;51.464;11.764;2022-10-31T08:58:21;16.60;;;8.05;;
66129;SDS011;52930;51.464;11.764;2022-10-31T09:00:48;17.98;;;7.53;;
66129;SDS011;52930;51.464;11.764;2022-10-31T09:03:16;12.95;;;7.30;;
66129;SDS011;52930;51.464;11.764;2022-10-31T09:05:47;22.73;;;8.43;;
66129;SDS011;52930;51.464;11.764;2022-10-31T09:08:13;19.30;;;7.90;;
66129;SDS011;52930;51.464;11.764;2022-10-31T09:10:39;21.23;;;7.50;;
66129;SDS011;52930;51.464;11.764;2022-10-31T09:13:06;16.23;;;7.40;;
66129;SDS011;52930;51.464;11.764;2022-10-31T09:15:35;20.37;;;7.47;;
66129;SDS011;52930;51.464;11.764;2022-10-31T09:18:01;22.20;;;7.68;;
66129;SDS011;52930;51.464;11.764;2022-10-31T09:20:27;17.67;;;7.40;;
66129;SDS011;52930;51.464;11.764;2022-10-31T09:22:57;19.23;;;7.40;;
66129;SDS011;52930;51.464;11.764;2022-10-31T09:25:26;20.73;;;8.77;;
66129;SDS011;52930;51.464;11.764;2022-10-31T09:27:56;20.00;;;8.50;;
66129;SDS011;52930;51.464;11.764;2022-10-31T09:30:22;28.23;;;10.30;;
66129;SDS011;52930;51.464;11.764;2022-10-31T09:32:54;23.52;;;10.05;;
66129;SDS011;52930;51.464;11.764;2022-10-31T09:35:34;24.43;;;9.47;;
66129;SDS011;52930;51.464;11.764;2022-10-31T09:38:04;24.85;;;9.95;;
66129;SDS011;52930;51.464;11.764;2022-10-31T09:40:32;31.52;;;12.00;;
66129;SDS011;52930;51.464;11.764;2022-10-31T09:51:08;27.55;;;11.07;;
66129;SDS011;52930;51.464;11.764;2022-10-31T09:53:38;28.20;;;10.77;;
66129;SDS011;52930;51.464;11.764;2022-10-31T09:56:12;23.20;;;10.53;;
66129;SDS011;52930;51.464;11.764;2022-10-31T09:58:40;32.33;;;12.93;;
66129;SDS011;52930;51.464;11.764;2022-10-31T10:01:09;32.63;;;12.52;;
66129;SDS011;52930;51.464;11.764;2022-10-31T10:03:48;34.83;;;12.45;;
66129;SDS011;52930;51.464;11.764;2022-10-31T10:06:19;31.25;;;12.50;;
66129;SDS011;52930;51.464;11.764;2022-10-31T10:08:48;36.47;;;13.57;;
66129;SDS011;52930;51.464;11.764;2022-10-31T10:11:35;36.08;;;13.45;;
66129;SDS011;52930;51.464;11.764;2022-10-31T10:17:16;31.40;;;12.70;;
66129;SDS011;52930;51.464;11.764;2022-10-31T10:22:51;35.60;;;13.23;;
66129;SDS011;52930;51.464;11.764;2022-10-31T10:25:20;34.25;;;13.52;;
66129;SDS011;52930;51.464;11.764;2022-10-31T10:27:58;34.73;;;12.97;;
66129;SDS011;52930;51.464;11.764;2022-10-31T10:30:45;34.35;;;13.75;;
66129;SDS011;52930;51.464;11.764;2022-10-31T10:33:14;36.70;;;13.95;;
66129;SDS011;52930;51.464;11.764;2022-10-31T10:38:28;36.38;;;13.50;;
66129;SDS011;52930;51.464;11.764;2022-10-31T10:40:56;32.80;;;13.40;;
66129;SDS011;52930;51.464;11.764;2022-10-31T10:43:29;38.13;;;13.40;;
66129;SDS011;52930;51.464;11.764;2022-10-31T10:51:59;33.20;;;13.10;;
66129;SDS011;52930;51.464;11.764;2022-10-31T10:59:46;35.63;;;14.23;;
66129;SDS011;52930;51.464;11.764;2022-10-31T11:02:18;31.93;;;13.30;;
66129;SDS011;52930;51.464;11.764;2022-10-31T11:04:47;36.10;;;14.07;;
66129;SDS011;52930;51.464;11.764;2022-10-31T11:07:15;32.78;;;14.55;;
66129;SDS011;52930;51.464;11.764;2022-10-31T11:09:41;37.67;;;14.57;;
66129;SDS011;52930;51.464;11.764;2022-10-31T11:12:35;38.88;;;14.65;;
66129;SDS011;52930;51.464;11.764;2022-10-31T11:15:16;38.88;;;14.77;;
66129;SDS011;52930;51.464;11.764;2022-10-31T11:17:48;36.72;;;14.60;;
66129;SDS011;52930;51.464;11.764;2022-10-31T11:22:47;35.00;;;14.85;;
66129;SDS011;52930;51.464;11.764;2022-10-31T11:27:45;40.40;;;15.77;;
66129;SDS011;52930;51.464;11.764;2022-10-31T11:30:29;34.10;;;13.90;;
66129;SDS011;52930;51.464;11.764;2022-10-31T11:32:56;36.37;;;13.73;;
66129;SDS011;52930;51.464;11.764;2022-10-31T11:35:23;32.60;;;14.45;;
66129;SDS011;52930;51.464;11.764;2022-10-31T11:37:49;37.97;;;14.77;;
66129;SDS011;52930;51.464;11.764;2022-10-31T11:42:46;37.72;;;14.60;;
66129;SDS011;52930;51.464;11.764;2022-10-31T11:47:43;38.70;;;15.18;;
66129;SDS011;52930;51.464;11.764;2022-10-31T11:50:11;36.08;;;15.80;;
66129;SDS011;52930;51.464;11.764;2022-10-31T11:52:44;33.80;;;14.63;;
66129;SDS011;52930;51.464;11.764;2022-10-31T11:57:45;37.92;;;15.07;;
66129;SDS011;52930;51.464;11.764;2022-10-31T12:02:47;40.92;;;16.52;;
66129;SDS011;52930;51.464;11.764;2022-10-31T12:05:20;44.00;;;16.03;;
66129;SDS011;52930;51.464;11.764;2022-10-31T12:07:48;41.00;;;15.90;;
66129;SDS011;52930;51.464;11.764;2022-10-31T12:10:14;39.33;;;16.50;;
66129;SDS011;52930;51.464;11.764;2022-10-31T12:15:35;40.75;;;16.73;;
66129;SDS011;52930;51.464;11.764;2022-10-31T12:40:23;41.30;;;16.52;;
66129;SDS011;52930;51.464;11.764;2022-10-31T12:42:58;39.65;;;16.90;;
66129;SDS011;52930;51.464;11.764;2022-10-31T12:45:58;45.42;;;17.13;;
66129;SDS011;52930;51.464;11.764;2022-10-31T12:59:01;48.20;;;17.88;;
66129;SDS011;52930;51.464;11.764;2022-10-31T13:04:19;42.20;;;17.38;;
66129;SDS011;52930;51.464;11.764;2022-10-31T13:07:11;42.57;;;17.17;;
66129;SDS011;52930;51.464;11.764;2022-10-31T13:09:45;37.55;;;16.60;;
66129;SDS011;52930;51.464;11.764;2022-10-31T13:12:17;37.97;;;15.70;;
66129;SDS011;52930;51.464;11.764;2022-10-31T13:14:51;39.38;;;16.02;;
66129;SDS011;52930;51.464;11.764;2022-10-31T13:17:25;34.58;;;15.43;;
66129;SDS011;52930;51.464;11.764;2022-10-31T13:19:54;39.67;;;15.63;;
66129;SDS011;52930;51.464;11.764;2022-10-31T13:22:27;44.35;;;16.48;;
66129;SDS011;52930;51.464;11.764;2022-10-31T13:30:18;37.70;;;16.48;;
66129;SDS011;52930;51.464;11.764;2022-10-31T13:35:29;38.95;;;16.15;;
66129;SDS011;52930;51.464;11.764;2022-10-31T13:44:00;33.78;;;16.02;;
66129;SDS011;52930;51.464;11.764;2022-10-31T13:46:38;39.00;;;15.90;;
66129;SDS011;52930;51.464;11.764;2022-10-31T13:49:21;37.58;;;16.13;;
66129;SDS011;52930;51.464;11.764;2022-10-31T13:54:35;46.78;;;19.98;;
66129;SDS011;52930;51.464;11.764;2022-10-31T13:59:47;39.47;;;16.97;;
66129;SDS011;52930;51.464;11.764;2022-10-31T14:02:16;43.42;;;18.52;;
66129;SDS011;52930;51.464;11.764;2022-10-31T14:07:15;45.65;;;19.33;;
66129;SDS011;52930;51.464;11.764;2022-10-31T14:14:59;40.78;;;16.42;;
66129;SDS011;52930;51.464;11.764;2022-10-31T14:17:29;50.22;;;18.00;;
66129;SDS011;52930;51.464;11.764;2022-10-31T14:22:37;44.95;;;17.45;;
66129;SDS011;52930;51.464;11.764;2022-10-31T14:27:56;43.60;;;16.90;;
66129;SDS011;52930;51.464;11.764;2022-10-31T14:30:23;41.70;;;18.27;;
66129;SDS011;52930;51.464;11.764;2022-10-31T14:32:51;52.65;;;18.92;;
66129;SDS011;52930;51.464;11.764;2022-10-31T14:35:18;40.17;;;18.10;;
66129;SDS011;52930;51.464;11.764;2022-10-31T14:38:03;46.83;;;18.17;;
66129;SDS011;52930;51.464;11.764;2022-10-31T14:46:17;45.78;;;18.95;;
66129;SDS011;52930;51.464;11.764;2022-10-31T14:51:46;50.03;;;16.73;;
66129;SDS011;52930;51.464;11.764;2022-10-31T14:54:17;46.85;;;17.10;;
66129;SDS011;52930;51.464;11.764;2022-10-31T14:56:49;45.33;;;18.27;;
66129;SDS011;52930;51.464;11.764;2022-10-31T14:59:18;47.03;;;18.20;;
66129;SDS011;52930;51.464;11.764;2022-10-31T15:02:31;48.28;;;18.50;;
66129;SDS011;52930;51.464;11.764;2022-10-31T15:04:36;49.93;;;18.13;;
66129;SDS011;52930;51.464;11.764;2022-10-31T15:09:36;51.58;;;18.80;;
66129;SDS011;52930;51.464;11.764;2022-10-31T15:12:25;47.83;;;18.52;;
66129;SDS011;52930;51.464;11.764;2022-10-31T15:14:55;47.70;;;18.98;;
66129;SDS011;52930;51.464;11.764;2022-10-31T15:17:21;53.70;;;19.77;;
66129;SDS011;52930;51.464;11.764;2022-10-31T15:19:47;56.67;;;19.83;;
66129;SDS011;52930;51.464;11.764;2022-10-31T15:22:14;46.00;;;18.90;;
66129;SDS011;52930;51.464;11.764;2022-10-31T15:24:44;51.83;;;19.57;;
66129;SDS011;52930;51.464;11.764;2022-10-31T15:27:11;48.92;;;20.48;;
66129;SDS011;52930;51.464;11.764;2022-10-31T15:29:47;52.20;;;19.40;;
66129;SDS011;52930;51.464;11.764;2022-10-31T15:32:23;53.70;;;20.33;;
66129;SDS011;52930;51.464;11.764;2022-10-31T15:34:50;56.75;;;20.23;;
66129;SDS011;52930;51.464;11.764;2022-10-31T15:37:18;53.17;;;21.13;;
66129;SDS011;52930;51.464;11.764;2022-10-31T15:39:44;69.78;;;25.33;;
66129;SDS011;52930;51.464;11.764;2022-10-31T15:42:17;74.17;;;26.73;;
66129;SDS011;52930;51.464;11.764;2022-10-31T15:44:47;49.15;;;19.15;;
66129;SDS011;52930;51.464;11.764;2022-10-31T15:47:17;50.88;;;19.92;;
66129;SDS011;52930;51.464;11.764;2022-10-31T15:49:48;47.47;;;18.55;;
66129;SDS011;52930;51.464;11.764;2022-10-31T15:52:25;49.17;;;18.48;;
66129;SDS011;52930;51.464;11.764;2022-10-31T15:57:38;45.92;;;18.35;;
66129;SDS011;52930;51.464;11.764;2022-10-31T16:00:05;51.60;;;19.25;;
66129;SDS011;52930;51.464;11.764;2022-10-31T16:02:30;52.30;;;18.67;;
66129;SDS011;52930;51.464;11.764;2022-10-31T16:04:59;59.97;;;19.90;;
66129;SDS011;52930;51.464;11.764;2022-10-31T16:07:26;60.10;;;20.80;;
66129;SDS011;52930;51.464;11.764;2022-10-31T16:09:59;62.47;;;21.05;;
66129;SDS011;52930;51.464;11.764;2022-10-31T16:12:29;54.03;;;18.80;;
66129;SDS011;52930;51.464;11.764;2022-10-31T16:14:57;84.57;;;27.58;;
66129;SDS011;52930;51.464;11.764;2022-10-31T16:17:24;70.20;;;23.47;;
66129;SDS011;52930;51.464;11.764;2022-10-31T16:22:38;74.68;;;24.83;;
66129;SDS011;52930;51.464;11.764;2022-10-31T16:25:11;85.20;;;27.67;;
66129;SDS011;52930;51.464;11.764;2022-10-31T16:27:39;266.35;;;112.78;;
66129;SDS011;52930;51.464;11.764;2022-10-31T16:30:47;132.00;;;44.23;;
66129;SDS011;52930;51.464;11.764;2022-10-31T16:33:03;101.63;;;35.97;;
66129;SDS011;52930;51.464;11.764;2022-10-31T16:37:58;117.93;;;40.78;;
66129;SDS011;52930;51.464;11.764;2022-10-31T16:40:23;113.33;;;37.50;;
66129;SDS011;52930;51.464;11.764;2022-10-31T16:42:49;114.80;;;40.93;;
66129;SDS011;52930;51.464;11.764;2022-10-31T16:45:15;115.40;;;37.72;;
66129;SDS011;52930;51.464;11.764;2022-10-31T16:47:42;195.10;;;64.43;;
66129;SDS011;52930;51.464;11.764;2022-10-31T16:50:16;139.70;;;43.33;;
66129;SDS011;52930;51.464;11.764;2022-10-31T16:52:50;320.42;;;134.35;;
66129;SDS011;52930;51.464;11.764;2022-10-31T16:55:16;182.32;;;64.13;;
66129;SDS011;52930;51.464;11.764;2022-10-31T16:57:48;128.35;;;38.70;;
66129;SDS011;52930;51.464;11.764;2022-10-31T17:00:18;129.43;;;42.20;;
66129;SDS011;52930;51.464;11.764;2022-10-31T17:02:46;174.65;;;50.25;;
66129;SDS011;52930;51.464;11.764;2022-10-31T17:05:12;124.50;;;37.25;;
66129;SDS011;52930;51.464;11.764;2022-10-31T17:07:39;166.73;;;56.60;;
66129;SDS011;52930;51.464;11.764;2022-10-31T17:10:05;188.60;;;69.35;;